createdAt,value
2018-10-03T00:00:08.734Z,14.97
2018-10-03T00:02:37.356Z,14.80
2018-10-03T00:05:06.050Z,18.20
2018-10-03T00:07:34.646Z,14.23
2018-10-03T00:10:03.400Z,23.03
2018-10-03T00:12:31.981Z,19.30
2018-10-03T00:15:00.636Z,20.73
2018-10-03T00:17:29.315Z,21.83
2018-10-03T00:19:57.948Z,28.90
2018-10-03T00:22:26.608Z,18.20
2018-10-03T00:24:55.185Z,18.00
2018-10-03T00:27:23.835Z,22.53
2018-10-03T00:29:52.519Z,26.03
2018-10-03T00:32:21.143Z,15.00
2018-10-03T00:34:49.855Z,14.73
2018-10-03T00:37:18.462Z,20.37
2018-10-03T00:39:47.100Z,15.33
2018-10-03T00:42:15.714Z,19.80
2018-10-03T00:44:44.421Z,13.90
2018-10-03T00:47:13.052Z,20.37
2018-10-03T00:49:41.709Z,18.67
2018-10-03T00:52:10.330Z,19.13
2018-10-03T00:54:38.998Z,16.13
2018-10-03T00:57:07.652Z,21.73
2018-10-03T00:59:36.264Z,16.83
2018-10-03T01:02:04.897Z,11.17
2018-10-03T01:04:33.505Z,20.20
2018-10-03T01:07:02.161Z,20.43
2018-10-03T01:09:30.816Z,14.67
2018-10-03T01:11:59.420Z,18.17
2018-10-03T01:14:28.056Z,20.07
2018-10-03T01:16:56.689Z,26.53
2018-10-03T01:19:25.380Z,20.63
2018-10-03T01:21:54.013Z,16.47
2018-10-03T01:24:22.653Z,18.87
2018-10-03T01:26:51.324Z,16.17
2018-10-03T01:29:19.934Z,13.33
2018-10-03T01:31:48.669Z,23.00
2018-10-03T01:34:17.285Z,17.23
2018-10-03T01:36:45.941Z,23.33
2018-10-03T01:39:14.603Z,15.40
2018-10-03T01:41:43.266Z,16.20
2018-10-03T01:44:11.871Z,10.57
2018-10-03T01:46:40.532Z,18.70
2018-10-03T01:49:09.172Z,15.50
2018-10-03T01:51:37.879Z,15.80
2018-10-03T01:54:06.528Z,14.47
2018-10-03T01:56:35.162Z,19.57
2018-10-03T01:59:03.758Z,19.50
2018-10-03T02:01:32.404Z,28.00
2018-10-03T02:04:01.060Z,22.47
2018-10-03T02:06:29.702Z,23.53
2018-10-03T02:08:58.318Z,18.07
2018-10-03T02:11:26.967Z,21.20
2018-10-03T02:13:55.574Z,19.50
2018-10-03T02:16:24.243Z,18.17
2018-10-03T02:18:52.843Z,14.90
2018-10-03T02:21:21.515Z,18.07
2018-10-03T02:23:50.129Z,15.03
2018-10-03T02:26:18.753Z,21.50
2018-10-03T02:28:47.396Z,16.53
2018-10-03T02:31:16.031Z,21.10
2018-10-03T02:33:44.690Z,26.90
2018-10-03T02:36:13.311Z,22.30
2018-10-03T02:38:42.032Z,19.30
2018-10-03T02:41:10.681Z,26.13
2018-10-03T02:43:39.330Z,23.47
2018-10-03T02:46:07.987Z,14.30
2018-10-03T02:48:36.588Z,20.60
2018-10-03T02:51:05.285Z,15.83
2018-10-03T02:53:33.885Z,22.80
2018-10-03T02:56:02.565Z,17.30
2018-10-03T02:58:31.185Z,15.27
2018-10-03T03:00:59.792Z,12.80
2018-10-03T03:03:28.462Z,21.60
2018-10-03T03:05:57.107Z,15.97
2018-10-03T03:08:25.835Z,19.83
2018-10-03T03:10:54.455Z,14.87
2018-10-03T03:13:23.077Z,19.97
2018-10-03T03:15:51.838Z,18.60
2018-10-03T03:18:20.504Z,25.73
2018-10-03T03:20:49.161Z,16.57
2018-10-03T03:23:17.782Z,14.93
2018-10-03T03:25:46.430Z,18.33
2018-10-03T03:28:15.053Z,22.60
2018-10-03T03:30:43.677Z,17.40
2018-10-03T03:33:12.271Z,15.97
2018-10-03T03:35:41.027Z,15.47
2018-10-03T03:38:09.666Z,15.03
2018-10-03T03:40:38.321Z,20.17
2018-10-03T03:43:07.049Z,15.83
2018-10-03T03:45:35.730Z,23.57
2018-10-03T03:48:04.352Z,15.53
2018-10-03T03:50:33.035Z,18.17
2018-10-03T03:53:01.693Z,19.10
2018-10-03T03:55:30.317Z,21.70
2018-10-03T03:57:59.024Z,18.17
2018-10-03T04:00:27.629Z,25.03
2018-10-03T04:02:56.253Z,18.93
2018-10-03T04:05:24.929Z,17.73
2018-10-03T04:07:53.620Z,17.37
2018-10-03T04:10:22.278Z,22.93
2018-10-03T04:12:51.361Z,19.40
2018-10-03T04:15:20.090Z,19.80
2018-10-03T04:17:48.706Z,21.60
2018-10-03T04:20:17.338Z,18.30
2018-10-03T04:22:46.022Z,21.10
2018-10-03T04:25:14.665Z,13.20
2018-10-03T04:27:43.328Z,17.83
2018-10-03T04:30:12.030Z,16.37
2018-10-03T04:32:40.726Z,19.57
2018-10-03T04:35:09.354Z,24.70
2018-10-03T04:37:38.012Z,18.07
2018-10-03T04:40:06.706Z,22.00
2018-10-03T04:42:35.349Z,15.03
2018-10-03T04:45:04.076Z,18.40
2018-10-03T04:47:32.755Z,21.90
2018-10-03T04:50:01.335Z,22.17
2018-10-03T04:52:29.990Z,24.90
2018-10-03T04:54:58.655Z,15.90
2018-10-03T04:57:27.266Z,20.07
2018-10-03T04:59:55.873Z,30.40
2018-10-03T05:02:24.570Z,23.63
2018-10-03T05:04:53.292Z,23.43
2018-10-03T05:07:22.010Z,16.37
2018-10-03T05:09:50.650Z,20.70
2018-10-03T05:12:19.255Z,18.83
2018-10-03T05:14:47.974Z,24.87
2018-10-03T05:17:16.650Z,17.53
2018-10-03T05:19:45.338Z,16.00
2018-10-03T05:22:13.991Z,16.50
2018-10-03T05:24:42.672Z,15.77
2018-10-03T05:27:11.416Z,20.03
2018-10-03T05:29:40.032Z,19.60
2018-10-03T05:32:08.641Z,20.50
2018-10-03T05:34:37.267Z,25.83
2018-10-03T05:37:06.079Z,18.13
2018-10-03T05:39:34.798Z,20.43
2018-10-03T05:42:03.463Z,24.87
2018-10-03T05:44:32.115Z,14.80
2018-10-03T05:47:00.759Z,14.60
2018-10-03T05:49:29.401Z,21.50
2018-10-03T05:51:58.087Z,18.00
2018-10-03T05:54:26.843Z,22.53
2018-10-03T05:56:55.501Z,22.63
2018-10-03T05:59:24.095Z,19.10
2018-10-03T06:01:52.829Z,17.90
2018-10-03T06:04:21.457Z,15.97
2018-10-03T06:06:50.072Z,16.50
2018-10-03T06:09:18.728Z,14.90
2018-10-03T06:11:47.457Z,31.73
2018-10-03T06:14:16.091Z,23.80
2018-10-03T06:16:44.740Z,18.13
2018-10-03T06:19:13.410Z,15.33
2018-10-03T06:21:42.115Z,13.70
2018-10-03T06:24:10.784Z,15.83
2018-10-03T06:26:39.392Z,20.13
2018-10-03T06:29:08.020Z,14.97
2018-10-03T06:31:36.758Z,21.03
2018-10-03T06:34:05.328Z,21.17
2018-10-03T06:36:33.985Z,18.10
2018-10-03T06:39:02.701Z,17.20
2018-10-03T06:41:31.374Z,16.07
2018-10-03T06:43:59.976Z,15.00
2018-10-03T06:46:28.620Z,21.47
2018-10-03T06:48:57.292Z,19.07
2018-10-03T06:51:25.914Z,18.63
2018-10-03T06:53:54.587Z,12.63
2018-10-03T06:56:23.275Z,20.87
2018-10-03T06:58:51.873Z,20.77
2018-10-03T07:01:20.544Z,18.43
2018-10-03T07:03:49.153Z,18.43
2018-10-03T07:06:17.787Z,14.07
2018-10-03T07:08:46.496Z,23.00
2018-10-03T07:11:15.124Z,23.43
2018-10-03T07:13:43.710Z,21.03
2018-10-03T07:16:12.355Z,18.60
2018-10-03T07:18:40.973Z,20.90
2018-10-03T07:21:09.624Z,21.73
2018-10-03T07:23:38.326Z,13.87
2018-10-03T07:26:07.482Z,14.80
2018-10-03T07:28:36.227Z,15.60
2018-10-03T07:31:04.886Z,18.77
2018-10-03T07:33:33.585Z,18.43
2018-10-03T07:36:02.440Z,23.30
2018-10-03T07:38:31.061Z,22.33
2018-10-03T07:40:59.721Z,16.27
2018-10-03T07:43:28.376Z,19.00
2018-10-03T07:45:57.095Z,19.63
2018-10-03T07:48:25.900Z,12.10
2018-10-03T07:50:54.489Z,18.30
2018-10-03T07:53:23.164Z,19.83
2018-10-03T07:55:51.764Z,14.80
2018-10-03T07:58:20.393Z,15.57
2018-10-03T08:00:49.013Z,26.47
2018-10-03T08:03:17.684Z,19.87
2018-10-03T08:05:46.339Z,17.93
2018-10-03T08:08:15.053Z,17.63
2018-10-03T08:10:43.713Z,14.83
2018-10-03T08:13:12.429Z,20.10
2018-10-03T08:15:41.065Z,15.47
2018-10-03T08:18:09.814Z,18.23
2018-10-03T08:20:38.513Z,12.70
2018-10-03T08:23:07.167Z,17.80
2018-10-03T08:25:35.872Z,15.60
2018-10-03T08:28:04.549Z,16.90
2018-10-03T08:30:33.159Z,18.63
2018-10-03T08:33:02.013Z,17.80
2018-10-03T08:35:30.613Z,15.80
2018-10-03T08:37:59.304Z,18.70
2018-10-03T08:40:27.970Z,16.80
2018-10-03T08:42:56.875Z,15.03
2018-10-03T08:45:25.512Z,13.80
2018-10-03T08:47:54.126Z,12.50
2018-10-03T08:50:22.715Z,14.10
2018-10-03T08:52:51.373Z,16.10
2018-10-03T08:55:20.142Z,18.30
2018-10-03T08:57:48.838Z,16.70
2018-10-03T09:00:17.494Z,13.97
2018-10-03T09:02:46.204Z,10.90
2018-10-03T09:05:14.836Z,15.70
2018-10-03T09:07:43.479Z,13.30
2018-10-03T09:10:12.188Z,12.63
2018-10-03T09:12:40.869Z,15.97
2018-10-03T09:15:09.676Z,16.27
2018-10-03T09:17:38.379Z,13.77
2018-10-03T09:20:06.982Z,13.73
2018-10-03T09:22:35.647Z,11.80
2018-10-03T09:25:04.446Z,12.10
2018-10-03T09:27:33.129Z,13.20
2018-10-03T09:30:01.821Z,14.53
2018-10-03T09:32:30.478Z,7.00
2018-10-03T09:34:59.186Z,11.43
2018-10-03T09:37:27.869Z,12.10
2018-10-03T09:39:56.557Z,10.80
2018-10-03T09:42:25.254Z,11.40
2018-10-03T09:44:53.893Z,10.80
2018-10-03T09:47:23.190Z,16.63
2018-10-03T09:49:51.903Z,11.40
2018-10-03T09:52:20.532Z,16.00
2018-10-03T09:54:49.204Z,12.87
2018-10-03T09:57:17.877Z,12.53
2018-10-03T09:59:46.539Z,12.03
2018-10-03T10:02:15.297Z,9.93
2018-10-03T10:04:43.963Z,11.13
2018-10-03T10:07:12.647Z,11.63
2018-10-03T10:09:41.336Z,9.40
2018-10-03T10:12:09.971Z,9.83
2018-10-03T10:14:38.675Z,8.63
2018-10-03T10:17:07.380Z,11.67
2018-10-03T10:19:36.665Z,8.47
2018-10-03T10:22:05.352Z,10.83
2018-10-03T10:24:33.994Z,10.57
2018-10-03T10:27:02.717Z,15.53
2018-10-03T10:29:31.338Z,7.17
2018-10-03T10:31:59.977Z,9.50
2018-10-03T10:34:28.632Z,9.70
2018-10-03T10:36:57.293Z,7.40
2018-10-03T10:39:26.122Z,6.57
2018-10-03T10:41:54.837Z,10.80
2018-10-03T10:44:23.551Z,8.13
2018-10-03T10:46:52.360Z,5.23
2018-10-03T10:49:20.998Z,12.00
2018-10-03T10:51:50.593Z,8.13
2018-10-03T10:54:19.221Z,7.47
2018-10-03T10:56:47.816Z,9.33
2018-10-03T10:59:16.437Z,8.17
2018-10-03T11:01:45.091Z,8.90
2018-10-03T11:04:13.705Z,6.73
2018-10-03T11:06:42.446Z,6.27
2018-10-03T11:09:11.071Z,6.90
2018-10-03T11:11:39.693Z,9.13
2018-10-03T11:14:08.344Z,7.73
2018-10-03T11:16:37.028Z,7.40
2018-10-03T11:19:05.663Z,10.93
2018-10-03T11:21:34.284Z,7.47
2018-10-03T11:24:03.384Z,9.40
2018-10-03T11:26:31.987Z,4.73
2018-10-03T11:29:00.619Z,9.00
2018-10-03T11:31:29.256Z,12.60
2018-10-03T11:33:57.867Z,8.23
2018-10-03T11:36:26.501Z,11.70
2018-10-03T11:38:55.105Z,5.57
2018-10-03T11:41:23.713Z,9.13
2018-10-03T11:43:52.418Z,12.73
2018-10-03T11:46:21.047Z,10.40
2018-10-03T11:48:49.687Z,5.97
2018-10-03T11:51:18.292Z,8.67
2018-10-03T11:53:46.961Z,8.93
2018-10-03T11:56:15.611Z,6.27
2018-10-03T11:58:44.225Z,5.80
2018-10-03T12:01:12.856Z,6.43
2018-10-03T12:03:41.475Z,11.10
2018-10-03T12:06:10.134Z,5.57
2018-10-03T12:08:38.841Z,10.00
2018-10-03T12:11:07.461Z,9.03
2018-10-03T12:13:36.103Z,6.13
2018-10-03T12:16:05.901Z,7.57
2018-10-03T12:18:34.553Z,7.23
2018-10-03T12:21:03.224Z,6.57
2018-10-03T12:23:31.847Z,8.97
2018-10-03T12:26:00.445Z,5.10
2018-10-03T12:28:29.071Z,6.47
2018-10-03T12:30:57.656Z,5.87
2018-10-03T12:33:26.329Z,4.47
2018-10-03T12:35:54.864Z,7.77
2018-10-03T12:38:23.552Z,7.03
2018-10-03T12:40:52.156Z,6.00
2018-10-03T12:43:20.750Z,7.37
2018-10-03T12:45:49.888Z,3.73
2018-10-03T12:48:18.554Z,4.80
2018-10-03T12:50:47.185Z,8.83
2018-10-03T12:53:15.809Z,6.47
2018-10-03T12:55:44.454Z,5.27
2018-10-03T12:58:13.092Z,5.53
2018-10-03T13:00:41.734Z,6.13
2018-10-03T13:03:10.476Z,7.90
2018-10-03T13:05:39.150Z,7.40
2018-10-03T13:08:07.850Z,6.57
2018-10-03T13:10:36.506Z,4.30
2018-10-03T13:13:05.255Z,4.90
2018-10-03T13:15:33.924Z,4.23
2018-10-03T13:18:02.664Z,7.23
2018-10-03T13:20:37.946Z,6.00
2018-10-03T13:23:06.804Z,4.70
2018-10-03T13:25:35.477Z,9.13
2018-10-03T13:28:04.167Z,7.67
2018-10-03T13:30:32.883Z,6.33
2018-10-03T13:33:01.553Z,3.80
2018-10-03T13:35:30.224Z,8.03
2018-10-03T13:37:58.829Z,5.37
2018-10-03T13:40:27.510Z,4.53
2018-10-03T13:42:56.270Z,5.70
2018-10-03T13:45:24.993Z,7.07
2018-10-03T13:47:53.669Z,9.33
2018-10-03T13:50:22.448Z,4.80
2018-10-03T13:52:51.048Z,6.60
2018-10-03T13:55:19.681Z,4.13
2018-10-03T13:57:48.360Z,8.07
2018-10-03T14:00:16.985Z,9.90
2018-10-03T14:02:45.752Z,5.93
2018-10-03T14:05:14.404Z,6.10
2018-10-03T14:07:43.074Z,6.30
2018-10-03T14:10:11.758Z,4.40
2018-10-03T14:12:40.408Z,9.87
2018-10-03T14:15:09.495Z,10.47
2018-10-03T14:17:38.373Z,6.57
2018-10-03T14:20:07.064Z,6.73
2018-10-03T14:22:35.685Z,5.43
2018-10-03T14:25:04.317Z,6.87
2018-10-03T14:27:33.035Z,10.90
2018-10-03T14:30:01.747Z,7.30
2018-10-03T14:32:31.319Z,10.97
2018-10-03T14:35:00.245Z,6.83
2018-10-03T14:37:28.940Z,5.13
2018-10-03T14:39:57.635Z,6.77
2018-10-03T14:42:26.257Z,10.60
2018-10-03T14:44:54.995Z,4.40
2018-10-03T14:47:23.966Z,8.40
2018-10-03T14:49:52.711Z,8.70
2018-10-03T14:52:22.930Z,4.63
2018-10-03T14:54:51.675Z,10.20
2018-10-03T14:57:20.418Z,5.57
2018-10-03T14:59:49.072Z,7.70
2018-10-03T15:02:17.750Z,8.50
2018-10-03T15:04:46.531Z,10.20
2018-10-03T15:07:15.215Z,7.43
2018-10-03T15:09:43.927Z,9.50
2018-10-03T15:12:12.687Z,12.03
2018-10-03T15:14:41.345Z,9.63
2018-10-03T15:17:10.057Z,6.27
2018-10-03T15:19:38.809Z,6.20
2018-10-03T15:22:07.448Z,7.63
2018-10-03T15:24:36.112Z,11.93
2018-10-03T15:27:04.704Z,6.17
2018-10-03T15:29:33.409Z,8.73
2018-10-03T15:32:02.072Z,8.63
2018-10-03T15:34:30.699Z,7.03
2018-10-03T15:36:59.427Z,8.97
2018-10-03T15:39:28.093Z,15.20
2018-10-03T15:41:56.724Z,8.93
2018-10-03T15:44:25.337Z,10.23
2018-10-03T15:46:54.021Z,6.28
2018-10-03T15:49:23.830Z,10.23
2018-10-03T15:51:52.770Z,12.63
2018-10-03T15:54:21.372Z,9.03
2018-10-03T15:56:50.018Z,11.10
2018-10-03T15:59:18.673Z,9.00
2018-10-03T16:01:47.269Z,8.77
2018-10-03T16:04:15.943Z,14.37
2018-10-03T16:06:45.149Z,10.38
2018-10-03T16:09:13.792Z,13.20
2018-10-03T16:11:42.526Z,9.57
2018-10-03T16:14:11.728Z,11.80
2018-10-03T16:16:40.399Z,10.03
2018-10-03T16:19:09.016Z,12.77
2018-10-03T16:21:37.706Z,10.13
2018-10-03T16:24:06.406Z,7.93
2018-10-03T16:26:35.008Z,8.10
2018-10-03T16:29:03.719Z,10.43
2018-10-03T16:31:32.487Z,6.77
2018-10-03T16:34:01.113Z,14.10
2018-10-03T16:36:29.724Z,7.93
2018-10-03T16:38:58.504Z,14.20
2018-10-03T16:41:26.973Z,11.23
2018-10-03T16:43:55.544Z,12.17
2018-10-03T16:46:24.184Z,8.60
2018-10-03T16:48:52.780Z,13.93
2018-10-03T16:51:21.416Z,9.30
2018-10-03T16:53:50.042Z,8.97
2018-10-03T16:56:18.674Z,6.90
2018-10-03T16:58:47.384Z,11.60
2018-10-03T17:01:16.018Z,10.93
2018-10-03T17:03:44.643Z,9.20
2018-10-03T17:06:13.248Z,7.83
2018-10-03T17:08:41.861Z,18.70
2018-10-03T17:11:10.465Z,11.27
2018-10-03T17:13:50.248Z,7.93
2018-10-03T17:16:18.884Z,6.03
2018-10-03T17:18:47.561Z,13.07
2018-10-03T17:21:16.240Z,9.50
2018-10-03T17:23:44.997Z,7.73
2018-10-03T17:26:13.685Z,11.47
2018-10-03T17:28:42.293Z,7.63
2018-10-03T17:31:11.010Z,10.70
2018-10-03T17:33:39.679Z,10.07
2018-10-03T17:36:08.336Z,10.57
2018-10-03T17:38:36.995Z,10.73
2018-10-03T17:41:05.853Z,11.00
2018-10-03T17:43:34.466Z,10.97
2018-10-03T17:46:03.171Z,10.47
2018-10-03T17:48:31.811Z,10.40
2018-10-03T17:51:00.565Z,10.77
2018-10-03T17:53:29.156Z,6.37
2018-10-03T17:55:57.798Z,9.57
2018-10-03T17:58:26.483Z,10.03
2018-10-03T18:00:55.160Z,15.97
2018-10-03T18:03:23.801Z,9.80
2018-10-03T18:05:52.423Z,11.63
2018-10-03T18:08:21.058Z,11.80
2018-10-03T18:10:49.642Z,12.80
2018-10-03T18:13:18.287Z,8.67
2018-10-03T18:15:46.922Z,8.30
2018-10-03T18:18:15.673Z,8.53
2018-10-03T18:20:44.302Z,8.43
2018-10-03T18:23:13.009Z,8.20
2018-10-03T18:25:41.620Z,11.27
2018-10-03T18:28:10.213Z,7.60
2018-10-03T18:30:38.943Z,17.17
2018-10-03T18:33:08.062Z,15.17
2018-10-03T18:35:36.629Z,9.90
2018-10-03T18:38:05.448Z,12.70
2018-10-03T18:40:33.947Z,13.70
2018-10-03T18:43:02.816Z,14.83
2018-10-03T18:45:31.428Z,11.20
2018-10-03T18:48:00.066Z,17.47
2018-10-03T18:50:28.649Z,17.67
2018-10-03T18:52:57.291Z,25.17
2018-10-03T18:55:25.897Z,14.03
2018-10-03T18:57:54.573Z,16.07
2018-10-03T19:00:23.289Z,12.20
2018-10-03T19:02:51.879Z,14.70
2018-10-03T19:05:20.718Z,12.07
2018-10-03T19:07:49.373Z,17.23
2018-10-03T19:10:18.038Z,20.37
2018-10-03T19:12:46.651Z,15.70
2018-10-03T19:15:15.349Z,16.17
2018-10-03T19:17:43.998Z,16.47
2018-10-03T19:20:12.700Z,11.30
2018-10-03T19:22:41.312Z,23.10
2018-10-03T19:25:10.007Z,14.57
2018-10-03T19:27:38.896Z,12.30
2018-10-03T19:30:07.536Z,12.60
2018-10-03T19:32:36.148Z,12.37
2018-10-03T19:35:04.943Z,12.77
2018-10-03T19:37:33.549Z,15.43
2018-10-03T19:40:02.158Z,16.27
2018-10-03T19:42:30.810Z,13.23
2018-10-03T19:44:59.400Z,14.67
2018-10-03T19:47:28.020Z,13.37
2018-10-03T19:49:56.654Z,14.97
2018-10-03T19:52:25.245Z,13.87
2018-10-03T19:54:53.893Z,14.80
2018-10-03T19:57:22.460Z,14.73
2018-10-03T19:59:51.121Z,14.70
2018-10-03T20:02:19.719Z,14.17
2018-10-03T20:04:48.333Z,15.47
2018-10-03T20:07:16.995Z,15.07
2018-10-03T20:09:45.570Z,13.97
2018-10-03T20:12:14.168Z,16.73
2018-10-03T20:14:42.825Z,13.13
2018-10-03T20:17:11.421Z,14.30
2018-10-03T20:19:40.267Z,16.13
2018-10-03T20:22:10.687Z,10.80
2018-10-03T20:24:39.729Z,15.50
2018-10-03T20:27:08.457Z,12.97
2018-10-03T20:29:37.125Z,11.13
2018-10-03T20:32:05.783Z,15.70
2018-10-03T20:34:34.401Z,13.93
2018-10-03T20:37:03.145Z,9.87
2018-10-03T20:39:31.745Z,18.77
2018-10-03T20:42:00.348Z,16.60
2018-10-03T20:44:28.965Z,11.10
2018-10-03T20:46:57.621Z,16.10
2018-10-03T20:49:26.236Z,13.40
2018-10-03T20:51:54.873Z,17.37
2018-10-03T20:54:23.559Z,15.63
2018-10-03T20:56:52.109Z,16.17
2018-10-03T20:59:20.728Z,13.27
2018-10-03T21:01:49.392Z,10.80
2018-10-03T21:04:18.024Z,14.27
2018-10-03T21:06:46.641Z,9.60
2018-10-03T21:09:15.279Z,11.90
2018-10-03T21:11:43.897Z,12.23
2018-10-03T21:14:12.493Z,12.47
2018-10-03T21:16:41.100Z,14.83
2018-10-03T21:19:09.675Z,16.03
2018-10-03T21:21:38.391Z,10.17
2018-10-03T21:24:07.322Z,10.90
2018-10-03T21:26:36.013Z,7.93
2018-10-03T21:29:04.582Z,13.67
2018-10-03T21:31:33.209Z,9.33
2018-10-03T21:34:01.911Z,9.60
2018-10-03T21:36:30.528Z,13.20
2018-10-03T21:38:59.163Z,16.03
2018-10-03T21:41:27.805Z,12.40
2018-10-03T21:43:56.462Z,10.20
2018-10-03T21:46:25.117Z,12.77
2018-10-03T21:48:53.797Z,20.33
2018-10-03T21:51:22.463Z,11.30
2018-10-03T21:53:51.053Z,13.17
2018-10-03T21:56:19.788Z,10.23
2018-10-03T21:58:48.383Z,19.70
2018-10-03T22:01:17.052Z,14.50
2018-10-03T22:03:45.718Z,12.67
2018-10-03T22:06:14.369Z,16.77
2018-10-03T22:08:43.034Z,12.83
2018-10-03T22:11:11.640Z,11.43
2018-10-03T22:13:40.287Z,13.87
2018-10-03T22:16:09.411Z,10.53
2018-10-03T22:18:38.008Z,17.00
2018-10-03T22:21:06.728Z,15.73
2018-10-03T22:23:35.431Z,13.73
2018-10-03T22:26:04.042Z,24.63
2018-10-03T22:28:32.640Z,15.57
2018-10-03T22:31:01.262Z,18.63
2018-10-03T22:33:29.904Z,12.13
2018-10-03T22:35:58.524Z,10.27
2018-10-03T22:38:27.144Z,16.53
2018-10-03T22:40:55.826Z,13.47
2018-10-03T22:43:24.445Z,14.60
2018-10-03T22:45:53.144Z,13.73
2018-10-03T22:48:21.818Z,13.50
2018-10-03T22:50:50.474Z,14.97
2018-10-03T22:53:19.138Z,12.33
2018-10-03T22:55:47.771Z,13.03
2018-10-03T22:58:16.432Z,21.63
2018-10-03T23:00:45.069Z,19.23
2018-10-03T23:03:13.833Z,16.57
2018-10-03T23:05:42.468Z,12.63
2018-10-03T23:08:11.138Z,14.63
2018-10-03T23:10:39.877Z,16.20
2018-10-03T23:13:08.562Z,12.23
2018-10-03T23:15:37.145Z,13.17
2018-10-03T23:18:12.000Z,20.17
2018-10-03T23:20:40.647Z,12.47
2018-10-03T23:23:09.285Z,11.07
2018-10-03T23:25:37.977Z,12.37
2018-10-03T23:28:06.628Z,15.90
2018-10-03T23:30:35.244Z,18.43
2018-10-03T23:33:03.884Z,10.97
2018-10-03T23:35:32.543Z,7.00
2018-10-03T23:38:01.162Z,11.77
2018-10-03T23:40:29.809Z,15.27
2018-10-03T23:42:58.421Z,13.30
2018-10-03T23:45:27.094Z,14.27
2018-10-03T23:47:55.745Z,15.77
2018-10-03T23:50:24.380Z,14.60
2018-10-03T23:52:53.011Z,12.20
2018-10-03T23:55:21.642Z,10.30
2018-10-03T23:57:50.349Z,11.10
